createdAt,value
2023-04-13T00:03:51.405Z,58.10
2023-04-13T00:06:53.154Z,84.60
2023-04-13T00:09:54.942Z,48.70
2023-04-13T00:15:58.538Z,44.40
2023-04-13T00:19:00.243Z,45.20
2023-04-13T00:22:02.105Z,39.80
2023-04-13T00:28:05.512Z,34.60
2023-04-13T00:31:07.517Z,43.40
2023-04-13T00:37:10.968Z,55.10
2023-04-13T00:43:15.819Z,116.90
2023-04-13T00:46:20.443Z,124.70
2023-04-13T00:49:22.420Z,106.10
2023-04-13T00:52:24.132Z,77.40
2023-04-13T00:55:28.794Z,111.10
2023-04-13T01:01:32.067Z,68.70
2023-04-13T01:07:41.205Z,109.80
2023-04-13T01:11:05.192Z,123.20
2023-04-13T01:14:22.273Z,179.00
2023-04-13T01:17:25.892Z,180.50
2023-04-13T01:20:28.670Z,243.60
2023-04-13T01:23:34.625Z,163.80
2023-04-13T01:26:46.625Z,219.80
2023-04-13T01:29:49.770Z,168.50
2023-04-13T01:32:52.137Z,163.10
2023-04-13T01:35:55.687Z,188.80
2023-04-13T01:38:57.386Z,125.70
2023-04-13T01:41:59.629Z,89.00
2023-04-13T01:45:01.342Z,113.60
2023-04-13T01:51:16.155Z,133.30
2023-04-13T01:54:20.493Z,149.00
2023-04-13T01:57:22.954Z,165.90
2023-04-13T02:00:28.656Z,150.00
2023-04-13T02:03:30.536Z,191.10
2023-04-13T02:06:32.344Z,121.60
2023-04-13T02:09:34.657Z,129.30
2023-04-13T02:12:36.408Z,99.00
2023-04-13T02:18:40.080Z,129.20
2023-04-13T02:21:41.810Z,88.00
2023-04-13T02:27:44.936Z,90.70
2023-04-13T02:30:46.724Z,91.10
2023-04-13T02:33:48.772Z,102.10
2023-04-13T02:36:50.376Z,86.20
2023-04-13T02:39:52.008Z,63.50
2023-04-13T02:42:53.647Z,64.50
2023-04-13T02:45:56.280Z,73.30
2023-04-13T02:48:58.026Z,94.30
2023-04-13T02:55:01.374Z,75.50
2023-04-13T02:58:03.205Z,86.30
2023-04-13T03:01:05.145Z,76.00
2023-04-13T03:04:06.923Z,81.00
2023-04-13T03:07:08.896Z,83.40
2023-04-13T03:13:12.234Z,85.50
2023-04-13T03:16:15.150Z,77.00
2023-04-13T03:19:17.015Z,86.20
2023-04-13T03:22:18.673Z,96.10
2023-04-13T03:25:20.323Z,86.00
2023-04-13T03:28:22.018Z,79.70
2023-04-13T03:34:25.330Z,78.50
2023-04-13T03:40:28.626Z,77.00
2023-04-13T03:46:32.154Z,78.00
2023-04-13T03:52:35.427Z,89.70
2023-04-13T03:58:38.793Z,78.40
2023-04-13T04:01:40.489Z,68.80
2023-04-13T04:07:43.911Z,62.60
2023-04-13T04:10:45.663Z,66.00
2023-04-13T04:13:47.283Z,63.90
2023-04-13T04:16:48.928Z,66.00
2023-04-13T04:22:52.713Z,62.90
2023-04-13T04:25:55.035Z,72.90
2023-04-13T04:28:57.272Z,62.90
2023-04-13T04:31:59.010Z,65.60
2023-04-13T04:38:03.001Z,64.60
2023-04-13T04:41:04.988Z,58.70
2023-04-13T04:44:06.591Z,65.00
2023-04-13T04:47:08.370Z,68.50
2023-04-13T04:53:14.948Z,61.70
2023-04-13T04:59:18.955Z,62.50
2023-04-13T05:02:20.632Z,61.90
2023-04-13T05:05:22.779Z,70.70
2023-04-13T05:08:24.508Z,134.40
2023-04-13T05:11:26.285Z,87.00
2023-04-13T05:14:28.112Z,65.20
2023-04-13T05:17:30.632Z,63.40
2023-04-13T05:20:32.788Z,61.50
2023-04-13T05:23:34.421Z,64.40
2023-04-13T05:29:39.485Z,57.80
2023-04-13T05:32:41.224Z,61.90
2023-04-13T05:35:42.857Z,65.20
2023-04-13T05:41:46.073Z,58.80
2023-04-13T05:44:47.890Z,62.10
2023-04-13T05:50:51.082Z,58.90
2023-04-13T05:56:54.406Z,66.00
2023-04-13T06:02:57.921Z,106.90
2023-04-13T06:06:00.046Z,76.40
2023-04-13T06:12:03.959Z,71.40
2023-04-13T06:15:06.149Z,57.90
2023-04-13T06:18:07.839Z,56.40
2023-04-13T06:21:09.682Z,58.10
2023-04-13T06:24:11.638Z,54.40
2023-04-13T06:27:13.363Z,56.30
2023-04-13T06:30:15.252Z,48.90
2023-04-13T06:33:17.098Z,48.20
2023-04-13T06:36:18.668Z,50.20
2023-04-13T06:42:21.816Z,51.00
2023-04-13T06:45:23.541Z,49.20
2023-04-13T06:48:25.368Z,46.90
2023-04-13T06:51:26.983Z,49.50
2023-04-13T06:54:28.655Z,49.70
2023-04-13T06:57:30.646Z,45.00
2023-04-13T07:00:32.304Z,44.10
2023-04-13T07:03:34.239Z,48.70
2023-04-13T07:06:36.273Z,47.50
2023-04-13T07:09:37.919Z,45.10
2023-04-13T07:12:39.677Z,41.70
2023-04-13T07:15:41.433Z,43.40
2023-04-13T07:18:43.279Z,44.50
2023-04-13T07:21:44.949Z,43.40
2023-04-13T07:24:46.596Z,45.30
2023-04-13T07:27:49.003Z,41.30
2023-04-13T07:30:50.709Z,41.90
2023-04-13T07:33:52.418Z,43.40
2023-04-13T07:36:54.005Z,42.10
2023-04-13T07:39:55.881Z,41.40
2023-04-13T07:42:58.244Z,40.70
2023-04-13T07:46:00.446Z,40.90
2023-04-13T07:49:02.532Z,38.00
2023-04-13T07:52:04.818Z,42.30
2023-04-13T07:55:07.476Z,40.30
2023-04-13T07:58:09.115Z,39.90
2023-04-13T08:01:11.119Z,42.30
2023-04-13T08:04:13.370Z,46.30
2023-04-13T08:07:15.198Z,45.90
2023-04-13T08:10:16.889Z,44.40
2023-04-13T08:13:18.553Z,48.10
2023-04-13T08:16:20.339Z,41.00
2023-04-13T08:19:22.068Z,33.50
2023-04-13T08:22:23.750Z,32.00
2023-04-13T08:25:25.766Z,33.90
2023-04-13T08:28:27.435Z,34.30
2023-04-13T08:31:29.095Z,32.40
2023-04-13T08:34:30.830Z,31.20
2023-04-13T08:37:36.374Z,30.20
2023-04-13T08:40:39.689Z,32.40
2023-04-13T08:43:41.510Z,29.00
2023-04-13T08:46:46.684Z,28.30
2023-04-13T08:49:48.784Z,30.10
2023-04-13T08:52:50.452Z,32.90
2023-04-13T08:55:52.762Z,28.40
2023-04-13T08:59:03.569Z,29.60
2023-04-13T09:02:05.368Z,27.60
2023-04-13T09:05:08.552Z,27.30
2023-04-13T09:08:11.770Z,27.30
2023-04-13T09:11:13.565Z,30.10
2023-04-13T09:14:17.879Z,27.10
2023-04-13T09:17:27.758Z,26.00
2023-04-13T09:20:29.571Z,25.80
2023-04-13T09:23:31.211Z,25.60
2023-04-13T09:26:46.584Z,24.70
2023-04-13T09:29:52.356Z,25.80
2023-04-13T09:33:11.060Z,25.40
2023-04-13T09:36:14.112Z,25.30
2023-04-13T09:39:15.911Z,24.20
2023-04-13T09:42:17.611Z,24.40
2023-04-13T09:45:19.375Z,25.80
2023-04-13T09:48:22.357Z,19.20
2023-04-13T09:51:24.229Z,20.80
2023-04-13T09:54:25.912Z,18.20
2023-04-13T09:57:29.638Z,19.00
2023-04-13T10:00:31.315Z,11.00
2023-04-13T10:03:34.536Z,14.80
2023-04-13T10:06:40.244Z,15.60
2023-04-13T10:09:42.037Z,15.10
2023-04-13T10:12:48.794Z,15.10
2023-04-13T10:16:28.553Z,14.70
2023-04-13T10:19:33.987Z,15.90
2023-04-13T10:22:35.907Z,17.10
2023-04-13T10:25:39.589Z,17.60
2023-04-13T10:28:45.988Z,17.90
2023-04-13T10:31:50.881Z,21.60
2023-04-13T10:34:53.864Z,17.90
2023-04-13T10:37:58.824Z,19.20
2023-04-13T10:41:00.436Z,17.50
2023-04-13T10:44:04.483Z,17.10
2023-04-13T10:47:06.371Z,18.80
2023-04-13T10:50:19.148Z,16.20
2023-04-13T10:53:26.703Z,19.00
2023-04-13T10:56:28.805Z,16.80
2023-04-13T10:59:57.031Z,16.60
2023-04-13T11:03:00.576Z,16.50
2023-04-13T11:06:02.576Z,18.90
2023-04-13T11:09:04.946Z,18.20
2023-04-13T11:12:07.720Z,16.40
2023-04-13T11:15:09.853Z,17.40
2023-04-13T11:18:11.529Z,16.60
2023-04-13T11:21:19.104Z,15.90
2023-04-13T11:24:26.266Z,13.90
2023-04-13T11:27:27.852Z,14.50
2023-04-13T11:30:30.080Z,13.60
2023-04-13T11:33:32.195Z,17.00
2023-04-13T11:36:33.893Z,14.40
2023-04-13T11:39:36.868Z,11.50
2023-04-13T11:42:39.981Z,12.70
2023-04-13T11:45:41.742Z,12.20
2023-04-13T11:48:43.835Z,11.00
2023-04-13T11:51:45.726Z,13.10
2023-04-13T11:54:47.456Z,12.40
2023-04-13T11:57:49.583Z,11.90
2023-04-13T12:00:51.201Z,9.50
2023-04-13T12:04:04.098Z,11.20
2023-04-13T12:07:15.226Z,12.40
2023-04-13T12:10:38.216Z,11.60
2023-04-13T12:13:50.327Z,8.40
2023-04-13T12:17:08.014Z,12.20
2023-04-13T12:20:20.840Z,12.90
2023-04-13T12:23:24.678Z,13.40
2023-04-13T12:29:42.125Z,11.70
2023-04-13T12:32:45.901Z,8.20
2023-04-13T12:35:47.658Z,10.30
2023-04-13T12:38:49.286Z,11.60
2023-04-13T12:41:50.925Z,17.20
2023-04-13T12:44:52.641Z,13.50
2023-04-13T12:47:54.394Z,13.40
2023-04-13T12:50:56.263Z,13.40
2023-04-13T12:53:57.945Z,11.30
2023-04-13T12:56:59.575Z,10.50
2023-04-13T13:00:01.392Z,12.20
2023-04-13T13:03:13.118Z,11.60
2023-04-13T13:06:17.141Z,14.20
2023-04-13T13:09:19.243Z,12.30
2023-04-13T13:12:20.957Z,11.50
2023-04-13T13:15:22.722Z,12.00
2023-04-13T13:18:30.073Z,13.90
2023-04-13T13:21:37.391Z,14.40
2023-04-13T13:24:39.122Z,13.30
2023-04-13T13:28:10.294Z,16.60
2023-04-13T13:31:02.369Z,11.90
2023-04-13T13:34:04.095Z,12.80
2023-04-13T13:37:05.747Z,12.80
2023-04-13T13:40:08.292Z,14.40
2023-04-13T13:43:09.973Z,11.70
2023-04-13T13:46:11.648Z,15.50
2023-04-13T13:49:13.427Z,17.10
2023-04-13T13:52:15.030Z,19.10
2023-04-13T13:55:16.707Z,16.10
2023-04-13T13:58:18.303Z,18.10
2023-04-13T14:01:19.981Z,17.40
2023-04-13T14:04:21.707Z,13.10
2023-04-13T14:07:23.286Z,16.20
2023-04-13T14:10:24.929Z,16.70
2023-04-13T14:13:27.297Z,13.30
2023-04-13T14:16:28.990Z,14.30
2023-04-13T14:19:30.722Z,14.20
2023-04-13T14:22:32.518Z,13.30
2023-04-13T14:25:34.197Z,16.50
2023-04-13T14:28:36.349Z,18.50
2023-04-13T14:31:37.972Z,19.80
2023-04-13T14:34:39.690Z,16.30
2023-04-13T14:37:41.341Z,14.00
2023-04-13T14:40:43.178Z,19.10
2023-04-13T14:43:44.836Z,21.90
2023-04-13T14:46:46.636Z,17.50
2023-04-13T14:49:48.828Z,18.50
2023-04-13T14:52:50.509Z,16.10
2023-04-13T14:55:52.154Z,14.80
2023-04-13T14:58:53.781Z,16.00
2023-04-13T15:01:55.555Z,17.40
2023-04-13T15:04:57.544Z,18.40
2023-04-13T15:07:59.211Z,19.20
2023-04-13T15:11:00.861Z,21.40
2023-04-13T15:14:02.569Z,17.70
2023-04-13T15:17:04.336Z,21.80
2023-04-13T15:20:06.544Z,19.20
2023-04-13T15:23:08.228Z,17.10
2023-04-13T15:26:19.028Z,24.10
2023-04-13T15:29:20.707Z,29.00
2023-04-13T15:32:22.330Z,30.50
2023-04-13T15:35:26.861Z,31.40
2023-04-13T15:38:28.784Z,28.10
2023-04-13T15:41:31.344Z,29.60
2023-04-13T15:44:33.053Z,24.60
2023-04-13T15:47:34.952Z,26.90
2023-04-13T15:50:36.737Z,39.00
2023-04-13T15:53:38.358Z,42.40
2023-04-13T15:56:40.080Z,41.30
2023-04-13T15:59:41.765Z,41.90
2023-04-13T16:02:43.587Z,42.00
2023-04-13T16:05:49.109Z,24.70
2023-04-13T16:08:50.788Z,29.60
2023-04-13T16:11:52.426Z,31.00
2023-04-13T16:14:54.199Z,29.80
2023-04-13T16:17:57.031Z,29.90
2023-04-13T16:20:59.515Z,29.20
2023-04-13T16:24:01.222Z,25.10
2023-04-13T16:27:03.010Z,28.80
2023-04-13T16:30:05.356Z,29.90
2023-04-13T16:33:07.252Z,26.40
2023-04-13T16:36:09.481Z,33.60
2023-04-13T16:39:13.076Z,35.80
2023-04-13T16:42:15.402Z,30.50
2023-04-13T16:45:17.216Z,27.70
2023-04-13T16:48:18.852Z,26.00
2023-04-13T16:51:20.484Z,25.10
2023-04-13T16:54:22.268Z,28.70
2023-04-13T16:57:24.167Z,28.30
2023-04-13T17:00:25.987Z,28.60
2023-04-13T17:03:27.920Z,35.10
2023-04-13T17:06:29.995Z,30.70
2023-04-13T17:09:31.586Z,27.40
2023-04-13T17:12:34.013Z,31.30
2023-04-13T17:15:35.938Z,29.70
2023-04-13T17:18:37.940Z,29.50
2023-04-13T17:21:39.528Z,28.50
2023-04-13T17:24:41.478Z,30.70
2023-04-13T17:27:43.233Z,31.70
2023-04-13T17:30:44.890Z,30.40
2023-04-13T17:33:48.223Z,33.50
2023-04-13T17:36:51.312Z,32.40
2023-04-13T17:39:52.872Z,35.90
2023-04-13T17:42:54.622Z,31.50
2023-04-13T17:45:56.480Z,32.80
2023-04-13T17:48:58.484Z,29.70
2023-04-13T17:52:00.936Z,32.20
2023-04-13T17:55:02.954Z,34.40
2023-04-13T17:58:05.373Z,32.60
2023-04-13T18:01:10.789Z,33.90
2023-04-13T18:04:14.258Z,34.30
2023-04-13T18:07:16.128Z,40.70
2023-04-13T18:10:17.946Z,35.60
2023-04-13T18:13:19.718Z,34.90
2023-04-13T18:16:22.308Z,33.70
2023-04-13T18:19:24.620Z,38.60
2023-04-13T18:22:26.346Z,41.10
2023-04-13T18:25:28.269Z,36.40
2023-04-13T18:28:30.077Z,38.80
2023-04-13T18:31:31.757Z,37.90
2023-04-13T18:34:35.090Z,39.00
2023-04-13T18:37:37.960Z,36.30
2023-04-13T18:40:39.782Z,37.70
2023-04-13T18:43:41.493Z,37.30
2023-04-13T18:46:43.326Z,36.00
2023-04-13T18:49:45.193Z,38.70
2023-04-13T18:52:47.251Z,40.80
2023-04-13T18:55:49.370Z,41.20
2023-04-13T18:58:51.610Z,40.20
2023-04-13T19:01:53.452Z,39.40
2023-04-13T19:04:55.539Z,40.60
2023-04-13T19:07:59.526Z,43.50
2023-04-13T19:11:01.121Z,40.00
2023-04-13T19:14:02.879Z,46.60
2023-04-13T19:17:04.482Z,41.60
2023-04-13T19:20:07.108Z,40.00
2023-04-13T19:23:08.876Z,40.90
2023-04-13T19:26:10.470Z,37.80
2023-04-13T19:29:13.038Z,40.40
2023-04-13T19:32:15.025Z,41.00
2023-04-13T19:35:17.415Z,37.30
2023-04-13T19:38:19.181Z,34.80
2023-04-13T19:41:21.056Z,37.50
2023-04-13T19:44:22.892Z,40.50
2023-04-13T19:47:24.559Z,38.10
2023-04-13T19:50:26.179Z,37.80
2023-04-13T19:53:28.563Z,40.60
2023-04-13T19:56:30.939Z,39.90
2023-04-13T19:59:32.841Z,39.90
2023-04-13T20:02:34.715Z,43.20
2023-04-13T20:05:36.520Z,39.60
2023-04-13T20:08:38.287Z,44.30
2023-04-13T20:11:40.790Z,46.10
2023-04-13T20:14:42.494Z,49.30
2023-04-13T20:17:44.128Z,46.40
2023-04-13T20:20:45.793Z,48.70
2023-04-13T20:23:47.398Z,49.20
2023-04-13T20:26:49.052Z,48.40
2023-04-13T20:29:51.372Z,43.60
2023-04-13T20:32:52.987Z,43.90
2023-04-13T20:35:55.097Z,46.20
2023-04-13T20:38:57.092Z,47.40
2023-04-13T20:41:58.754Z,46.30
2023-04-13T20:45:00.348Z,49.50
2023-04-13T20:48:48.573Z,47.40
2023-04-13T20:51:24.042Z,47.60
2023-04-13T20:54:25.638Z,51.80
2023-04-13T20:57:27.283Z,46.10
2023-04-13T21:00:28.896Z,47.10
2023-04-13T21:03:31.194Z,47.60
2023-04-13T21:06:33.283Z,49.30
2023-04-13T21:09:35.088Z,48.80
2023-04-13T21:12:36.724Z,49.30
2023-04-13T21:15:38.362Z,48.10
2023-04-13T21:18:40.278Z,50.40
2023-04-13T21:21:41.901Z,50.10
2023-04-13T21:24:44.238Z,53.50
2023-04-13T21:27:45.822Z,50.70
2023-04-13T21:30:47.484Z,51.90
2023-04-13T21:33:49.220Z,53.40
2023-04-13T21:36:52.213Z,56.50
2023-04-13T21:39:54.072Z,51.90
2023-04-13T21:42:55.660Z,56.90
2023-04-13T21:45:57.319Z,60.40
2023-04-13T21:48:59.227Z,63.60
2023-04-13T21:52:01.157Z,56.80
2023-04-13T21:55:02.891Z,62.50
2023-04-13T21:58:04.542Z,59.80
2023-04-13T22:01:06.597Z,62.60
2023-04-13T22:04:08.324Z,61.40
2023-04-13T22:07:09.955Z,60.60
2023-04-13T22:10:11.744Z,69.10
2023-04-13T22:13:13.430Z,62.30
2023-04-13T22:16:15.123Z,60.50
2023-04-13T22:19:16.778Z,60.70
2023-04-13T22:22:18.401Z,61.20
2023-04-13T22:25:20.063Z,63.40
2023-04-13T22:28:21.698Z,63.70
2023-04-13T22:31:23.307Z,62.30
2023-04-13T22:34:25.176Z,62.40
2023-04-13T22:37:29.579Z,62.50
2023-04-13T22:40:31.212Z,64.20
2023-04-13T22:43:32.790Z,69.60
2023-04-13T22:46:34.710Z,65.80
2023-04-13T22:49:36.388Z,62.00
2023-04-13T22:52:37.986Z,64.00
2023-04-13T22:55:39.704Z,68.50
2023-04-13T22:58:41.376Z,73.30
2023-04-13T23:01:43.137Z,76.70
2023-04-13T23:04:45.047Z,72.00
2023-04-13T23:07:46.891Z,76.10
2023-04-13T23:10:48.546Z,75.00
2023-04-13T23:13:53.077Z,78.60
2023-04-13T23:16:55.057Z,74.80
2023-04-13T23:19:56.731Z,81.70
2023-04-13T23:22:58.785Z,78.00
2023-04-13T23:26:00.474Z,79.90
2023-04-13T23:29:02.253Z,76.60
2023-04-13T23:32:04.390Z,71.90
2023-04-13T23:35:06.722Z,78.20
2023-04-13T23:38:08.334Z,77.30
2023-04-13T23:41:09.938Z,76.00
2023-04-13T23:44:11.577Z,77.40
2023-04-13T23:47:13.266Z,77.90
2023-04-13T23:50:14.921Z,79.50
2023-04-13T23:53:16.544Z,79.40
2023-04-13T23:56:18.609Z,76.00
2023-04-13T23:59:20.363Z,71.40
